• Join FlightAware (Why Join?)
  • Login
  • US Flag 
12:25AM EDT


 

Airport Tracker/Info


-or-


 

Live Flight TrackerFlight Track Log ✈ UCA3599 ✈ 30-Oct-2013 ✈ KBGM - KIAD

Flight Track Log - Related Links

Times and Time Zones

All times are in EDT time to prevent confusion due to time zone crossing. See the UCA3599 flight status page for this flight to view local times or setup timezone preferences in your user account.

Time Position Orientation Groundspeed Altitude Reporting Facility
EDT Latitude Longitude Course Direction KTS MPH feet Rate Location/Type
06:09AM 42.1492 -76.0097 212° Southwest 163 188 4,200  Level New York Center
06:10AM 42.1144 -76.0461 218° Southwest 163 188 5,600 1,440 Climbing New York Center
06:11AM 42.0753 -76.0822 214° Southwest 163 188 7,100 1,500 Climbing New York Center
06:12AM 42.0383 -76.1183 216° Southwest 163 188 8,700 1,500 Climbing New York Center
06:13AM 42.0033 -76.1517 215° Southwest 163 188 10,100 1,200 Climbing New York Center
06:14AM 41.8397 -76.1549 212° Southwest  Level Estimated
06:14AM 41.9686 -76.1825 213° Southwest 157 181 11,100  Level New York Center
06:15AM 41.9253 -76.2233 215° Southwest 168 193 12,400 1,200 Climbing New York Center
06:16AM 41.8836 -76.2644 216° Southwest 181 208 13,600 1,200 Climbing New York Center
06:17AM 41.8422 -76.3058 217° Southwest 187 215 14,800 1,140 Climbing New York Center
06:18AM 41.8033 -76.3386 212° Southwest 187 215 15,900 600 Climbing New York Center
06:19AM 41.7553 -76.3847 216° Southwest 194 223 16,000  Climbing New York Center
06:20AM 41.6964 -76.4408 215° Southwest 237 273 16,000  Level New York Center
06:21AM 41.6397 -76.4944 215° Southwest 254 292 16,000  Level New York Center
06:22AM 41.5828 -76.5506 216° Southwest 259 298 16,000  Level New York Center
06:23AM 41.5306 -76.5958 213° Southwest 259 298 16,000  Level New York Center
06:24AM 41.4672 -76.6569 216° Southwest 253 291 16,000  Level New York Center
06:25AM 41.4147 -76.7047 214° Southwest 253 291 16,000  Level New York Center
06:26AM 41.3578 -76.7606 216° Southwest 253 291 16,000  Level New York Center
06:27AM 41.2894 -76.7933 200° South 253 291 16,000  Level New York Center
06:28AM 41.2178 -76.8117 191° South 258 297 16,000 -300 Level New York Center
06:29AM 41.1458 -76.8328 192° South 263 303 15,500 -540 Descending New York Center
06:30AM 41.0700 -76.8508 190° South 268 308 15,000 -540 Descending New York Center
06:31AM 40.9958 -76.8744 194° South 275 316 14,500 -540 Descending New York Center
06:32AM 40.9153 -76.8975 192° South 280 322 14,000 -300 Descending New York Center
06:33AM 40.8436 -76.9156 191° South 280 322 14,000  Level New York Center
06:34AM 40.7717 -76.9339 191° South 275 316 14,000  Level New York Center
06:35AM 40.7019 -76.9522 191° South 270 311 14,000  Level New York Center
06:36AM 40.6322 -76.9733 193° South 260 299 14,000  Level New York Center
06:37AM 40.5625 -76.9917 191° South 260 299 14,000  Level New York Center
06:38AM 40.4925 -77.0100 191° South 260 299 14,000 -60 Level New York Center
06:39AM 40.4228 -77.0281 191° South 260 299 13,900 -660 Descending New York Center
06:42AM 40.2500 -77.0833 194° South 264 304 11,900 -900 Descending Potomac TRACON
06:43AM 40.1833 -77.1167 201° Southwest 268 308 10,900 -1,080 Descending Potomac TRACON
06:44AM 40.1167 -77.1333 191° South 269 310 9,800 -1,020 Descending Potomac TRACON
06:45AM 40.0500 -77.1667 201° Southwest 267 307 9,000 -480 Descending Potomac TRACON
06:46AM 39.9833 -77.1833 191° South 250 288 9,000  Level Potomac TRACON
06:47AM 39.9333 -77.2167 207° Southwest 244 281 9,000 -120 Level Potomac TRACON
06:48AM 39.8667 -77.2333 191° South 244 281 8,800 -540 Descending Potomac TRACON
06:48AM 39.8000 -77.2667 201° Southwest 253 291 8,000 -480 Descending Potomac TRACON
06:49AM 39.7333 -77.3000 201° Southwest 250 288 7,900 -540 Descending Potomac TRACON
06:50AM 39.6667 -77.3333 201° Southwest 254 292 7,000 -900 Descending Potomac TRACON
06:51AM 39.6167 -77.3833 218° Southwest 248 285 6,100 -900 Descending Potomac TRACON
06:52AM 39.5667 -77.4000 194° South 241 277 5,300 -900 Descending Potomac TRACON
06:53AM 39.5000 -77.4167 191° South 230 265 4,400 -660 Descending Potomac TRACON
06:54AM 39.4333 -77.4333 191° South 227 261 4,000 -300 Descending Potomac TRACON
06:55AM 39.3667 -77.4333 180° South 209 241 3,900 -360 Descending Potomac TRACON
06:56AM 39.3167 -77.4333 180° South 190 219 3,300 -480 Descending Potomac TRACON
06:57AM 39.2667 -77.4333 180° South 200 230 3,000 -180 Descending Potomac TRACON
06:58AM 39.2167 -77.4333 180° South 194 223 3,000  Level Potomac TRACON
06:59AM 39.1667 -77.4333 180° South 155 178 3,000  Level Potomac TRACON
07:00AM 39.1333 -77.4333 180° South 156 180 3,000 -120 Level Potomac TRACON
07:01AM 39.0833 -77.4333 180° South 158 182 2,800 -600 Descending Potomac TRACON
07:02AM 39.0333 -77.4333 180° South 153 176 1,900 -780 Descending Potomac TRACON
07:03AM 39.0000 -77.4333 180° South 114 131 1,300 -600 Descending Potomac TRACON
07:04AM 38.9667 -77.4333 180° South 109 125 700 -600 Descending Potomac TRACON